Time;durP1;ratioP1;P1;durP2;ratioP2;P2;SDS_P1;SDS_P2;PMS_P1;PMS_P2;Temp;Humidity;BMP_temperature;BMP_pressure;BME280_temperature;BME280_humidity;BME280_pressure;Samples;Min_cycle;Max_cycle;Signal;HPM_P1;HPM_P2
2024/03/18 00:00:24;;;;;;;20.23;4.20;;;10.80;99.90;;;;;;5055569;28;20041;-69
2024/03/18 00:02:50;;;;;;;18.27;3.95;;;10.80;99.90;;;;;;5054972;28;20041;-69
2024/03/18 00:05:15;;;;;;;19.48;3.85;;;10.80;99.90;;;;;;5055276;28;20045;-69
2024/03/18 00:07:41;;;;;;;15.55;3.33;;;10.70;99.90;;;;;;5054471;28;20075;-69
2024/03/18 00:10:11;;;;;;;21.15;4.60;;;10.70;99.90;;;;;;5055101;28;20040;-69
2024/03/18 00:12:37;;;;;;;16.77;3.78;;;10.70;99.90;;;;;;5054741;28;20128;-69
2024/03/18 00:15:03;;;;;;;18.35;4.47;;;10.60;99.90;;;;;;5053152;28;20047;-69
2024/03/18 00:17:28;;;;;;;23.33;4.57;;;10.60;99.90;;;;;;5054796;28;20040;-69
2024/03/18 00:19:54;;;;;;;16.02;3.80;;;10.60;99.90;;;;;;5054535;28;20045;-69
2024/03/18 00:22:20;;;;;;;21.05;4.03;;;10.50;99.90;;;;;;5054813;28;20037;-69
2024/03/18 00:24:46;;;;;;;19.27;4.72;;;10.50;99.90;;;;;;5054607;28;20059;-69
2024/03/18 00:27:13;;;;;;;20.88;4.72;;;10.50;99.90;;;;;;5054747;28;20067;-69
2024/03/18 00:29:39;;;;;;;27.15;5.18;;;10.40;99.90;;;;;;5054707;28;20044;-69
2024/03/18 00:32:05;;;;;;;25.25;5.35;;;10.50;99.90;;;;;;5054733;28;20041;-69
2024/03/18 00:34:31;;;;;;;19.83;4.38;;;10.40;99.90;;;;;;5054613;28;20124;-70
2024/03/18 00:36:56;;;;;;;21.27;4.50;;;10.40;99.90;;;;;;5054702;28;20041;-69
2024/03/18 00:39:22;;;;;;;21.58;4.40;;;10.50;99.90;;;;;;5054470;28;20055;-69
2024/03/18 00:41:48;;;;;;;22.85;5.45;;;10.50;99.90;;;;;;5053927;28;20478;-69
2024/03/18 00:44:19;;;;;;;22.88;4.45;;;10.50;99.90;;;;;;5054349;28;20041;-69
2024/03/18 00:46:46;;;;;;;29.75;5.15;;;10.40;99.90;;;;;;5054269;28;20048;-69
2024/03/18 00:49:12;;;;;;;18.48;5.13;;;10.40;99.90;;;;;;5054456;28;20063;-69
2024/03/18 00:51:38;;;;;;;19.55;4.30;;;10.40;99.90;;;;;;5053965;28;20045;-69
2024/03/18 00:54:04;;;;;;;22.65;5.40;;;10.50;99.90;;;;;;5054546;28;20033;-69
2024/03/18 00:56:30;;;;;;;25.83;5.35;;;10.50;99.90;;;;;;5053963;28;20041;-69
2024/03/18 00:58:56;;;;;;;22.38;4.60;;;10.50;99.90;;;;;;5054392;28;20048;-69
2024/03/18 01:01:22;;;;;;;21.45;5.28;;;10.50;99.90;;;;;;5054044;28;20367;-69
2024/03/18 01:03:48;;;;;;;23.63;4.40;;;10.50;99.90;;;;;;5054211;28;20049;-69
2024/03/18 01:06:14;;;;;;;22.30;5.30;;;10.50;99.90;;;;;;5053900;28;20771;-69
2024/03/18 01:08:40;;;;;;;18.73;4.75;;;10.50;99.90;;;;;;5054180;28;20044;-69
2024/03/18 01:11:06;;;;;;;17.05;4.50;;;10.50;99.90;;;;;;5054188;28;20064;-69
2024/03/18 01:13:33;;;;;;;20.38;5.03;;;10.50;99.90;;;;;;5053862;28;20048;-69
2024/03/18 01:15:58;;;;;;;26.05;5.07;;;10.50;99.90;;;;;;5053209;28;20132;-69
2024/03/18 01:18:24;;;;;;;21.70;4.82;;;10.50;99.90;;;;;;5054215;28;20052;-69
2024/03/18 01:20:50;;;;;;;19.58;4.70;;;10.50;99.90;;;;;;5037117;28;20049;-69
2024/03/18 01:23:16;;;;;;;21.38;5.38;;;10.50;99.90;;;;;;5053644;28;20539;-69
2024/03/18 01:25:42;;;;;;;23.80;4.78;;;10.40;99.90;;;;;;5053364;28;20082;-69
2024/03/18 01:28:07;;;;;;;25.70;5.68;;;10.40;99.90;;;;;;5053761;28;20512;-69
2024/03/18 01:30:33;;;;;;;17.50;4.85;;;10.40;99.90;;;;;;5054015;28;20449;-69
2024/03/18 01:32:59;;;;;;;18.15;5.50;;;10.40;99.90;;;;;;5053790;28;20514;-69
2024/03/18 01:35:25;;;;;;;23.70;4.88;;;10.40;99.90;;;;;;5053657;28;20037;-69
2024/03/18 01:37:51;;;;;;;22.55;5.40;;;10.40;99.90;;;;;;5053297;28;20041;-69
2024/03/18 01:40:17;;;;;;;18.77;4.80;;;10.40;99.90;;;;;;5053454;28;20383;-69
2024/03/18 01:42:43;;;;;;;17.83;4.78;;;10.30;99.90;;;;;;5053519;28;20371;-69
2024/03/18 01:45:08;;;;;;;21.63;5.05;;;10.30;99.90;;;;;;5053096;28;20052;-69
2024/03/18 01:47:34;;;;;;;16.08;4.72;;;10.40;99.90;;;;;;5053161;28;20033;-69
2024/03/18 01:50:00;;;;;;;22.45;4.72;;;10.40;99.90;;;;;;5053266;28;20047;-69
2024/03/18 01:52:26;;;;;;;18.15;5.32;;;10.40;99.90;;;;;;5053047;28;20041;-69
2024/03/18 01:54:52;;;;;;;13.98;5.07;;;10.40;99.90;;;;;;5053069;28;20037;-69
2024/03/18 01:57:18;;;;;;;21.52;5.50;;;10.40;99.90;;;;;;5052884;28;20037;-69
2024/03/18 01:59:43;;;;;;;19.50;5.18;;;10.40;99.90;;;;;;5052866;28;20428;-69
2024/03/18 02:02:11;;;;;;;21.17;5.93;;;10.40;99.90;;;;;;5052984;28;20056;-69
2024/03/18 02:04:37;;;;;;;17.67;5.82;;;10.40;99.90;;;;;;5053259;28;20075;-69
2024/03/18 02:07:03;;;;;;;19.60;5.88;;;10.40;99.90;;;;;;5052377;28;20081;-69
2024/03/18 02:09:28;;;;;;;23.50;6.75;;;10.40;99.90;;;;;;5051581;28;20068;-69
2024/03/18 02:11:54;;;;;;;17.77;5.93;;;10.40;99.90;;;;;;5051396;28;20033;-69
2024/03/18 02:14:20;;;;;;;21.25;6.68;;;10.40;99.90;;;;;;5051942;28;20041;-69
2024/03/18 02:16:46;;;;;;;21.52;6.30;;;10.40;99.90;;;;;;5051911;28;20048;-69
2024/03/18 02:19:11;;;;;;;16.23;6.28;;;10.30;99.90;;;;;;5052271;28;20045;-69
2024/03/18 02:21:37;;;;;;;22.88;7.20;;;10.30;99.90;;;;;;5052722;28;20044;-69
2024/03/18 02:24:06;;;;;;;21.35;6.88;;;10.20;99.90;;;;;;5053057;28;20056;-69
2024/03/18 02:26:32;;;;;;;20.08;7.15;;;10.10;99.90;;;;;;5052671;28;20049;-69
2024/03/18 02:28:58;;;;;;;22.85;7.70;;;10.10;99.90;;;;;;5052734;28;20041;-69
2024/03/18 02:31:24;;;;;;;19.73;7.50;;;10.00;99.90;;;;;;5053511;28;20120;-69
2024/03/18 02:33:49;;;;;;;14.60;6.28;;;10.00;99.90;;;;;;5053728;28;20090;-70
2024/03/18 02:36:15;;;;;;;22.83;8.07;;;9.90;99.90;;;;;;5051795;28;20068;-69
2024/03/18 02:38:41;;;;;;;21.63;7.30;;;9.90;99.90;;;;;;5052003;28;20457;-69
2024/03/18 02:41:07;;;;;;;20.83;7.32;;;9.80;99.90;;;;;;5052687;28;20037;-69
2024/03/18 02:43:32;;;;;;;20.98;7.57;;;9.80;99.90;;;;;;5052403;28;20049;-69
2024/03/18 02:45:58;;;;;;;19.77;7.50;;;9.70;99.90;;;;;;5052248;28;20073;-69
2024/03/18 02:48:24;;;;;;;23.50;7.80;;;9.70;99.90;;;;;;5052530;28;20444;-70
2024/03/18 02:50:50;;;;;;;17.80;7.65;;;9.70;99.90;;;;;;5052356;28;20504;-69
2024/03/18 02:53:16;;;;;;;19.02;7.75;;;9.60;99.90;;;;;;5052587;28;20033;-70
2024/03/18 02:55:41;;;;;;;30.00;8.82;;;9.60;99.90;;;;;;5052369;28;20520;-69
2024/03/18 02:58:07;;;;;;;23.75;8.40;;;9.50;99.90;;;;;;5052163;28;20056;-69
2024/03/18 03:00:33;;;;;;;23.52;8.13;;;9.40;99.90;;;;;;5052376;28;20049;-69
2024/03/18 03:02:59;;;;;;;26.45;9.43;;;9.40;99.90;;;;;;5052205;28;20080;-70
2024/03/18 03:05:24;;;;;;;23.20;8.75;;;9.40;99.90;;;;;;5052476;28;20087;-70
2024/03/18 03:07:50;;;;;;;19.27;7.82;;;9.50;99.90;;;;;;5052119;28;20049;-68
2024/03/18 03:10:17;;;;;;;22.73;7.75;;;9.50;99.90;;;;;;5051968;28;20041;-69
2024/03/18 03:12:43;;;;;;;28.38;7.80;;;9.60;99.90;;;;;;5052284;28;20049;-69
2024/03/18 03:15:08;;;;;;;19.48;6.43;;;9.70;99.90;;;;;;5051883;28;20049;-69
2024/03/18 03:17:34;;;;;;;19.20;6.40;;;9.70;99.90;;;;;;5052397;28;20045;-69
2024/03/18 03:20:00;;;;;;;21.10;7.40;;;9.80;99.90;;;;;;5052007;28;20490;-69
2024/03/18 03:22:26;;;;;;;25.75;6.28;;;9.80;99.90;;;;;;5052337;28;20052;-70
2024/03/18 03:24:52;;;;;;;22.17;5.70;;;9.90;99.90;;;;;;5052688;28;20043;-69
2024/03/18 03:27:18;;;;;;;25.92;7.00;;;10.00;99.90;;;;;;5051970;28;20143;-70
2024/03/18 03:29:43;;;;;;;19.17;5.45;;;9.90;99.90;;;;;;5052330;28;20080;-69
2024/03/18 03:32:10;;;;;;;21.00;5.85;;;10.00;99.90;;;;;;5052310;28;20041;-69
2024/03/18 03:34:37;;;;;;;16.38;5.05;;;10.00;99.90;;;;;;5051846;28;20048;-69
2024/03/18 03:37:03;;;;;;;20.50;5.10;;;10.00;99.90;;;;;;5051694;28;20128;-69
2024/03/18 03:39:29;;;;;;;17.70;4.60;;;10.10;99.90;;;;;;5051722;28;20460;-69
2024/03/18 03:41:55;;;;;;;16.42;3.40;;;10.10;99.90;;;;;;5051764;28;20064;-70
2024/03/18 03:44:21;;;;;;;20.25;3.90;;;10.10;99.90;;;;;;5051993;28;20127;-70
2024/03/18 03:46:50;;;;;;;14.23;3.75;;;10.00;99.90;;;;;;5051533;28;20068;-70
2024/03/18 03:49:16;;;;;;;16.55;3.75;;;10.00;99.90;;;;;;5054350;28;20048;-71
2024/03/18 03:51:42;;;;;;;15.10;3.97;;;10.00;99.90;;;;;;5055427;28;20037;-70
2024/03/18 03:54:07;;;;;;;14.98;3.50;;;10.00;99.90;;;;;;5055484;28;20063;-64
2024/03/18 03:56:33;;;;;;;14.52;3.85;;;10.00;99.90;;;;;;5055173;28;20075;-64
2024/03/18 03:58:59;;;;;;;17.17;3.88;;;10.00;99.90;;;;;;5055151;28;20079;-64
2024/03/18 04:01:25;;;;;;;17.73;3.45;;;10.00;99.90;;;;;;5055315;28;20045;-64
2024/03/18 04:03:51;;;;;;;20.40;3.83;;;10.00;99.90;;;;;;5055336;28;20037;-64
2024/03/18 04:06:16;;;;;;;15.05;3.60;;;10.00;99.90;;;;;;5055023;28;20041;-64
2024/03/18 04:08:42;;;;;;;15.30;3.08;;;9.90;99.90;;;;;;5054900;28;20131;-64
2024/03/18 04:11:08;;;;;;;14.77;2.78;;;9.90;99.90;;;;;;5055223;28;20082;-64
2024/03/18 04:13:34;;;;;;;18.60;3.28;;;9.90;99.90;;;;;;5054968;28;20044;-64
2024/03/18 04:16:00;;;;;;;15.82;3.60;;;9.90;99.90;;;;;;5054565;28;20110;-64
2024/03/18 04:18:26;;;;;;;18.05;3.47;;;9.90;99.90;;;;;;5055086;28;20044;-64
2024/03/18 04:20:53;;;;;;;14.40;3.40;;;9.80;99.90;;;;;;5055041;28;20045;-64
2024/03/18 04:23:19;;;;;;;13.25;2.90;;;9.80;99.90;;;;;;5054663;28;20049;-64
2024/03/18 04:25:45;;;;;;;17.00;3.65;;;9.80;99.90;;;;;;5054436;28;20490;-64
2024/03/18 04:28:10;;;;;;;17.15;3.35;;;9.90;99.90;;;;;;5055014;28;20048;-64
2024/03/18 04:30:37;;;;;;;16.50;3.13;;;9.90;99.90;;;;;;5054517;28;20033;-64
2024/03/18 04:33:02;;;;;;;17.63;3.20;;;9.80;99.90;;;;;;5054953;28;20114;-64
2024/03/18 04:35:28;;;;;;;14.35;3.53;;;9.80;99.90;;;;;;5054458;28;20482;-64
2024/03/18 04:37:57;;;;;;;16.40;3.35;;;9.80;99.90;;;;;;5037825;28;20053;-64
2024/03/18 04:40:23;;;;;;;15.30;3.25;;;9.80;99.90;;;;;;5054763;28;20045;-64
2024/03/18 04:42:49;;;;;;;14.32;2.92;;;9.80;99.90;;;;;;5054809;28;20052;-64
2024/03/18 04:45:15;;;;;;;17.70;3.13;;;9.70;99.90;;;;;;5054668;28;20041;-64
2024/03/18 04:47:40;;;;;;;16.63;3.25;;;9.70;99.90;;;;;;5054371;28;20091;-64
2024/03/18 04:50:08;;;;;;;13.90;2.72;;;9.60;99.90;;;;;;5054490;28;20044;-64
2024/03/18 04:52:34;;;;;;;17.58;3.25;;;9.50;99.90;;;;;;5054590;28;20090;-64
2024/03/18 04:54:59;;;;;;;12.48;2.97;;;9.40;99.90;;;;;;5054223;28;20045;-64
2024/03/18 04:57:25;;;;;;;21.45;3.72;;;9.40;99.90;;;;;;5054313;28;20397;-64
2024/03/18 04:59:51;;;;;;;15.15;2.92;;;9.40;99.90;;;;;;5070163;28;20174;-64
2024/03/18 05:02:17;;;;;;;11.75;3.28;;;9.30;99.90;;;;;;5053944;28;20500;-64
2024/03/18 05:04:42;;;;;;;16.83;3.20;;;9.30;99.90;;;;;;5037014;28;20084;-64
2024/03/18 05:07:08;;;;;;;13.52;3.20;;;9.20;99.90;;;;;;5037156;28;20049;-64
2024/03/18 05:09:34;;;;;;;11.45;2.60;;;9.20;99.90;;;;;;5054177;28;20159;-64
2024/03/18 05:12:00;;;;;;;18.60;3.17;;;9.10;99.90;;;;;;5053603;28;20545;-64
2024/03/18 05:14:25;;;;;;;14.35;3.17;;;9.10;99.90;;;;;;5054084;28;20087;-64
2024/03/18 05:16:51;;;;;;;15.48;3.33;;;9.00;99.90;;;;;;5053741;28;20052;-64
2024/03/18 05:19:17;;;;;;;13.20;3.00;;;9.00;99.90;;;;;;5054032;28;20052;-64
2024/03/18 05:21:43;;;;;;;12.40;2.90;;;8.90;99.90;;;;;;5053920;28;20048;-64
2024/03/18 05:24:08;;;;;;;15.43;3.30;;;8.90;99.90;;;;;;5053671;28;20037;-64
2024/03/18 05:26:34;;;;;;;16.42;3.05;;;8.90;99.90;;;;;;5053480;28;20041;-64
2024/03/18 05:29:00;;;;;;;18.17;3.83;;;8.90;99.90;;;;;;5053502;28;20417;-64
2024/03/18 05:31:26;;;;;;;19.00;3.35;;;8.80;99.90;;;;;;5053671;28;20132;-64
2024/03/18 05:33:51;;;;;;;15.95;3.53;;;8.90;99.90;;;;;;5053710;28;20398;-64
2024/03/18 05:36:18;;;;;;;13.27;3.30;;;8.90;99.90;;;;;;5053460;28;20033;-64
2024/03/18 05:38:44;;;;;;;22.08;3.70;;;8.90;99.90;;;;;;5053644;28;20514;-64
2024/03/18 05:41:09;;;;;;;10.25;2.90;;;8.90;99.90;;;;;;5053401;28;20040;-64
2024/03/18 05:43:35;;;;;;;13.45;3.08;;;8.90;99.90;;;;;;5053152;28;20066;-64
2024/03/18 05:46:01;;;;;;;18.95;3.55;;;8.90;99.90;;;;;;5053258;28;20047;-64
2024/03/18 05:48:27;;;;;;;14.60;2.83;;;8.90;99.90;;;;;;5053402;28;20134;-64
2024/03/18 05:50:52;;;;;;;15.35;3.17;;;8.90;99.90;;;;;;5053082;28;20063;-64
2024/03/18 05:53:18;;;;;;;10.88;3.13;;;8.90;99.90;;;;;;5053279;28;20029;-64
2024/03/18 05:55:44;;;;;;;15.07;3.70;;;8.90;99.90;;;;;;5036226;28;20506;-64
2024/03/18 05:58:10;;;;;;;17.38;4.40;;;8.90;99.90;;;;;;5053148;28;20072;-64
2024/03/18 06:00:37;;;;;;;16.05;3.80;;;8.90;99.90;;;;;;5053003;28;20087;-64
2024/03/18 06:03:03;;;;;;;12.75;3.45;;;8.90;99.90;;;;;;5052979;28;20037;-64
2024/03/18 06:05:29;;;;;;;10.20;3.28;;;8.80;99.90;;;;;;5036105;28;20402;-64
2024/03/18 06:07:55;;;;;;;16.85;3.97;;;8.80;99.90;;;;;;5052841;28;20048;-64
2024/03/18 06:10:21;;;;;;;17.65;4.82;;;8.70;99.90;;;;;;5052870;28;20037;-64
2024/03/18 06:12:47;;;;;;;13.57;4.40;;;8.70;99.90;;;;;;5051979;28;20063;-64
2024/03/18 06:15:13;;;;;;;16.92;4.55;;;8.60;99.90;;;;;;5052739;28;20088;-64
2024/03/18 06:17:38;;;;;;;14.95;4.15;;;8.60;99.90;;;;;;5036010;28;20055;-64
2024/03/18 06:20:04;;;;;;;14.60;4.32;;;8.60;99.90;;;;;;5052594;28;20049;-64
2024/03/18 06:22:36;;;;;;;19.55;5.05;;;8.60;99.90;;;;;;5052529;28;20056;-63
2024/03/18 06:27:47;;;;;;;20.58;4.53;;;8.70;99.90;;;;;;5052537;28;20040;-64
2024/03/18 06:30:13;;;;;;;14.77;3.75;;;8.80;99.90;;;;;;5052407;28;20045;-71
2024/03/18 06:32:38;;;;;;;15.23;3.80;;;8.80;99.90;;;;;;5052618;28;20037;-70
2024/03/18 06:35:04;;;;;;;12.70;4.22;;;8.90;99.90;;;;;;5035605;28;20144;-70
2024/03/18 06:37:32;;;;;;;14.82;4.05;;;9.00;99.90;;;;;;5053005;28;20053;-70
2024/03/18 06:39:59;;;;;;;13.77;4.05;;;9.00;99.90;;;;;;5052482;28;20053;-70
2024/03/18 06:42:25;;;;;;;13.13;3.72;;;9.10;99.90;;;;;;5052404;28;20527;-70
2024/03/18 06:44:51;;;;;;;12.30;3.40;;;9.10;99.90;;;;;;5052371;28;20037;-72
2024/03/18 06:47:17;;;;;;;14.27;3.55;;;9.20;99.90;;;;;;5052070;28;20037;-70
2024/03/18 06:49:42;;;;;;;10.30;3.03;;;9.20;99.90;;;;;;5052395;28;20077;-70
2024/03/18 06:52:08;;;;;;;13.50;3.38;;;9.20;99.90;;;;;;5052389;28;20037;-70
2024/03/18 06:54:35;;;;;;;12.55;2.97;;;9.20;99.90;;;;;;5052436;28;20083;-70
2024/03/18 06:57:01;;;;;;;19.92;4.03;;;9.30;99.90;;;;;;5052042;28;20102;-70
2024/03/18 06:59:27;;;;;;;12.88;3.33;;;9.30;99.90;;;;;;5052198;28;20041;-64
2024/03/18 07:01:53;;;;;;;16.33;3.40;;;9.40;99.90;;;;;;5052536;28;20080;-64
2024/03/18 07:04:19;;;;;;;11.82;3.60;;;9.30;99.90;;;;;;5052246;28;20082;-64
2024/03/18 07:06:44;;;;;;;13.57;3.03;;;9.40;99.90;;;;;;5051917;28;20068;-69
2024/03/18 07:09:10;;;;;;;10.48;3.10;;;9.40;99.90;;;;;;5051884;28;20052;-69
2024/03/18 07:11:36;;;;;;;19.80;3.28;;;9.50;99.90;;;;;;5052179;28;20155;-70
2024/03/18 07:14:02;;;;;;;16.33;3.80;;;9.50;99.90;;;;;;5052293;28;20060;-70
2024/03/18 07:16:28;;;;;;;16.73;3.10;;;9.50;99.90;;;;;;5035157;28;20470;-69
2024/03/18 07:18:54;;;;;;;11.30;2.95;;;9.50;99.90;;;;;;5051745;28;20044;-69
2024/03/18 07:21:19;;;;;;;16.75;3.38;;;9.50;99.90;;;;;;5050210;28;20544;-69
2024/03/18 07:23:45;;;;;;;14.57;3.30;;;9.50;99.90;;;;;;5049748;28;20095;-69
2024/03/18 07:26:11;;;;;;;18.05;4.15;;;9.50;99.90;;;;;;5054992;28;20052;-69
2024/03/18 07:28:37;;;;;;;19.42;4.85;;;9.50;99.90;;;;;;5052695;28;20091;-69
2024/03/18 07:31:03;;;;;;;20.67;4.55;;;9.50;99.90;;;;;;5054738;28;20123;-69
2024/03/18 07:33:29;;;;;;;17.80;4.22;;;9.50;99.90;;;;;;5054884;28;20045;-69
2024/03/18 07:35:54;;;;;;;13.93;4.18;;;9.50;99.90;;;;;;5055091;28;20120;-68
2024/03/18 07:38:20;;;;;;;18.92;4.32;;;9.50;99.90;;;;;;5055006;28;20079;-69
2024/03/18 07:40:48;;;;;;;14.40;4.28;;;9.40;99.90;;;;;;5054952;28;20044;-69
2024/03/18 07:43:15;;;;;;;14.13;3.60;;;9.40;99.90;;;;;;5054598;28;20064;-69
2024/03/18 07:45:40;;;;;;;13.90;3.72;;;9.40;99.90;;;;;;5054975;28;20508;-69
2024/03/18 07:48:06;;;;;;;17.08;3.60;;;9.40;99.90;;;;;;5054716;28;20110;-70
2024/03/18 07:50:33;;;;;;;17.83;3.78;;;9.30;99.90;;;;;;5054708;28;20061;-69
2024/03/18 07:52:58;;;;;;;14.73;3.67;;;9.30;99.90;;;;;;5038280;28;20045;-69
2024/03/18 07:55:24;;;;;;;15.52;3.00;;;9.30;99.90;;;;;;5054846;28;20132;-69
2024/03/18 07:57:50;;;;;;;13.95;3.08;;;9.40;99.90;;;;;;5054506;28;20072;-69
2024/03/18 08:00:16;;;;;;;11.57;3.50;;;9.50;99.90;;;;;;5054542;28;20049;-69
2024/03/18 08:02:42;;;;;;;13.18;2.75;;;9.50;99.90;;;;;;5054330;28;20083;-61
2024/03/18 08:05:08;;;;;;;9.52;2.28;;;9.60;99.90;;;;;;5054259;28;20049;-69
2024/03/18 08:07:34;;;;;;;12.05;2.88;;;9.60;99.90;;;;;;5053935;28;20045;-68
2024/03/18 08:10:00;;;;;;;14.65;3.20;;;9.60;99.90;;;;;;5054677;28;20036;-69
2024/03/18 08:12:25;;;;;;;14.68;3.10;;;9.70;99.90;;;;;;5070610;28;20482;-69
2024/03/18 08:14:51;;;;;;;12.77;3.40;;;9.70;99.90;;;;;;5054138;28;20037;-67
2024/03/18 08:17:19;;;;;;;14.23;2.40;;;9.80;99.90;;;;;;5054230;28;20453;-69
2024/03/18 08:19:45;;;;;;;16.08;3.28;;;9.80;99.90;;;;;;5037376;28;20134;-69
2024/03/18 08:22:16;;;;;;;12.30;2.75;;;9.90;99.90;;;;;;5054056;28;20132;-69
2024/03/18 08:24:43;;;;;;;12.52;2.65;;;10.00;99.90;;;;;;5054126;28;20069;-68
2024/03/18 08:27:08;;;;;;;14.73;2.58;;;10.10;99.90;;;;;;5054249;28;20037;-69
2024/03/18 08:29:34;;;;;;;11.73;2.00;;;10.20;99.90;;;;;;5037312;28;20041;-68
2024/03/18 08:32:00;;;;;;;10.63;2.50;;;10.30;99.90;;;;;;5053607;28;20033;-62
2024/03/18 08:34:26;;;;;;;10.85;2.22;;;10.40;99.90;;;;;;5036728;28;20052;-62
2024/03/18 08:36:52;;;;;;;11.57;2.17;;;10.60;99.90;;;;;;5050607;28;20036;-62
2024/03/18 08:39:18;;;;;;;10.07;2.10;;;10.70;99.90;;;;;;5053752;28;20490;-62
2024/03/18 08:41:46;;;;;;;10.25;2.03;;;10.80;99.90;;;;;;5053628;28;20039;-68
2024/03/18 08:44:11;;;;;;;11.05;1.88;;;10.80;99.90;;;;;;5037189;28;20144;-68
2024/03/18 08:46:38;;;;;;;14.18;2.47;;;10.90;99.90;;;;;;5053633;28;20033;-69
2024/03/18 08:49:04;;;;;;;10.82;2.47;;;11.00;99.90;;;;;;5053651;28;20048;-68
2024/03/18 08:51:31;;;;;;;8.98;2.20;;;11.10;99.90;;;;;;5053455;28;20049;-68
2024/03/18 08:53:56;;;;;;;8.60;2.00;;;11.30;99.90;;;;;;5053659;28;20045;-69
2024/03/18 08:56:22;;;;;;;7.70;1.90;;;11.40;99.90;;;;;;5053449;28;20048;-69
2024/03/18 08:58:50;;;;;;;8.20;2.17;;;11.50;99.90;;;;;;5053763;28;20041;-68
2024/03/18 09:01:15;;;;;;;6.35;1.45;;;11.60;99.90;;;;;;5053528;28;20045;-68
2024/03/18 09:03:41;;;;;;;7.10;1.77;;;11.80;99.90;;;;;;5053341;28;20052;-69
2024/03/18 09:06:08;;;;;;;6.85;1.50;;;11.90;99.90;;;;;;5053255;28;20124;-68
2024/03/18 09:08:34;;;;;;;11.77;2.10;;;11.90;99.90;;;;;;5053383;28;20053;-69
2024/03/18 09:11:00;;;;;;;8.73;2.17;;;11.90;99.90;;;;;;5053370;28;20039;-68
2024/03/18 09:13:25;;;;;;;6.95;1.83;;;11.90;99.90;;;;;;5053018;28;20047;-67
2024/03/18 09:15:52;;;;;;;6.75;1.83;;;12.00;99.90;;;;;;5052973;28;20037;-67
2024/03/18 09:18:18;;;;;;;7.70;1.60;;;12.10;99.90;;;;;;5036608;28;20047;-68
2024/03/18 09:20:45;;;;;;;6.57;1.85;;;12.10;99.90;;;;;;5069798;28;20061;-68
2024/03/18 09:23:11;;;;;;;7.38;1.67;;;12.10;99.90;;;;;;5052898;28;20033;-68
2024/03/18 09:25:36;;;;;;;6.20;1.63;;;12.10;99.90;;;;;;5053088;28;20494;-69
2024/03/18 09:28:02;;;;;;;8.25;1.92;;;12.20;99.90;;;;;;5052254;28;20029;-68
2024/03/18 09:30:30;;;;;;;7.15;1.75;;;12.20;99.90;;;;;;5036415;28;20073;-69
2024/03/18 09:32:56;;;;;;;6.68;2.47;;;12.30;99.90;;;;;;5052768;28;20430;-69
2024/03/18 09:35:23;;;;;;;7.93;1.92;;;12.40;99.90;;;;;;5036094;28;20048;-68
2024/03/18 09:37:49;;;;;;;8.32;1.90;;;12.60;99.90;;;;;;5036409;28;20051;-69
2024/03/18 09:40:15;;;;;;;6.82;1.30;;;12.70;99.90;;;;;;5052675;28;20037;-68
2024/03/18 09:42:41;;;;;;;3.95;1.05;;;12.80;99.90;;;;;;5052697;28;20040;-68
2024/03/18 09:45:08;;;;;;;10.63;1.58;;;12.80;99.90;;;;;;5052384;28;20052;-69
2024/03/18 09:47:34;;;;;;;10.52;1.50;;;12.90;99.90;;;;;;5052533;28;20124;-69
2024/03/18 09:49:59;;;;;;;5.40;1.27;;;12.90;99.90;;;;;;5052912;28;20487;-70
2024/03/18 09:52:25;;;;;;;8.30;1.17;;;12.90;99.90;;;;;;5052574;28;20045;-61
2024/03/18 09:54:51;;;;;;;6.05;1.27;;;13.00;99.90;;;;;;5052303;28;20086;-62
2024/03/18 09:57:18;;;;;;;4.47;1.05;;;13.00;99.90;;;;;;5052235;28;20097;-63
2024/03/18 09:59:44;;;;;;;6.43;1.35;;;13.10;99.90;;;;;;5052734;28;20056;-62
2024/03/18 10:02:10;;;;;;;7.90;1.55;;;13.20;99.90;;;;;;5052299;28;20060;-61
2024/03/18 10:04:36;;;;;;;6.53;1.75;;;13.20;99.90;;;;;;5052442;28;20536;-62
2024/03/18 10:07:02;;;;;;;4.15;1.23;;;13.30;99.90;;;;;;5035563;28;20517;-61
2024/03/18 10:09:29;;;;;;;5.28;1.20;;;13.30;99.90;;;;;;5052269;28;20120;-62
2024/03/18 10:11:54;;;;;;;4.75;1.45;;;13.30;99.90;;;;;;5052333;28;20449;-60
2024/03/18 10:14:21;;;;;;;5.97;1.60;;;13.30;99.90;;;;;;5052230;28;20048;-62
2024/03/18 10:16:46;;;;;;;5.85;1.27;;;13.40;99.90;;;;;;5051903;28;20049;-61
2024/03/18 10:19:12;;;;;;;4.32;2.00;;;13.50;99.90;;;;;;5052390;28;20566;-61
2024/03/18 10:21:38;;;;;;;6.80;2.58;;;13.60;99.90;;;;;;5035422;28;20041;-60
2024/03/18 10:24:04;;;;;;;7.55;3.47;;;13.70;99.90;;;;;;5052150;28;20045;-61
2024/03/18 10:26:30;;;;;;;5.50;1.67;;;13.70;99.90;;;;;;5051777;28;20086;-62
2024/03/18 10:28:56;;;;;;;6.88;1.80;;;13.80;99.90;;;;;;5051881;28;20071;-61
2024/03/18 10:31:21;;;;;;;9.23;2.25;;;13.90;99.90;;;;;;5051739;28;20078;-61
2024/03/18 10:33:47;;;;;;;5.32;1.52;;;13.90;99.90;;;;;;5052108;28;20437;-62
2024/03/18 10:36:14;;;;;;;4.72;1.70;;;13.80;99.90;;;;;;5051586;28;20041;-61
2024/03/18 10:38:40;;;;;;;4.65;1.05;;;13.90;99.90;;;;;;5051696;28;20048;-62
2024/03/18 10:41:05;;;;;;;5.30;1.58;;;13.90;99.90;;;;;;5051556;28;20398;-61
2024/03/18 10:43:32;;;;;;;4.88;2.05;;;13.90;99.90;;;;;;5051930;28;20421;-70
2024/03/18 10:45:57;;;;;;;5.28;1.20;;;13.90;99.90;;;;;;5051343;28;20059;-70
2024/03/18 10:48:23;;;;;;;4.45;1.30;;;13.80;99.90;;;;;;5051711;28;20461;-70
2024/03/18 10:50:49;;;;;;;6.10;1.55;;;13.80;99.90;;;;;;5051992;28;20032;-70
2024/03/18 10:53:16;;;;;;;4.70;1.55;;;13.80;99.90;;;;;;5051629;28;20064;-70
2024/03/18 10:55:41;;;;;;;4.78;1.63;;;13.90;99.90;;;;;;5051417;28;20037;-70
2024/03/18 10:58:07;;;;;;;5.65;1.83;;;13.90;99.90;;;;;;5052633;28;20086;-70
2024/03/18 11:00:33;;;;;;;4.35;1.80;;;14.00;99.90;;;;;;5055792;28;20041;-71
2024/03/18 11:02:59;;;;;;;4.72;2.38;;;14.10;99.90;;;;;;5056537;28;20076;-71
2024/03/18 11:05:25;;;;;;;6.50;2.13;;;14.10;99.90;;;;;;5055833;28;20107;-71
2024/03/18 11:07:50;;;;;;;5.47;1.95;;;14.20;99.90;;;;;;5055895;28;20132;-71
2024/03/18 11:10:16;;;;;;;4.90;2.10;;;14.30;99.90;;;;;;5055395;28;20120;-71
2024/03/18 11:12:42;;;;;;;6.57;2.17;;;14.40;99.90;;;;;;5056372;28;20516;-69
2024/03/18 11:15:08;;;;;;;5.15;2.10;;;14.50;99.90;;;;;;5056117;28;20482;-68
2024/03/18 11:17:34;;;;;;;5.15;1.85;;;14.60;99.90;;;;;;5056275;28;20041;-66
2024/03/18 11:20:00;;;;;;;4.50;1.63;;;14.50;99.90;;;;;;5055892;28;20158;-66
2024/03/18 11:22:26;;;;;;;8.18;2.30;;;14.60;99.90;;;;;;5039409;28;20033;-65
2024/03/18 11:24:51;;;;;;;5.93;1.98;;;14.50;99.90;;;;;;5056174;28;20144;-66
2024/03/18 11:27:17;;;;;;;5.95;1.42;;;14.60;99.90;;;;;;5056027;28;20068;-66
2024/03/18 11:29:46;;;;;;;6.07;1.90;;;14.60;99.90;;;;;;5055810;28;20117;-66
2024/03/18 11:32:12;;;;;;;6.70;1.90;;;14.60;99.90;;;;;;5055933;28;20045;-64
2024/03/18 11:34:38;;;;;;;5.63;1.58;;;14.50;99.90;;;;;;5055827;28;20106;-63
2024/03/18 11:37:03;;;;;;;6.03;1.50;;;14.50;99.90;;;;;;5055554;28;20045;-63
2024/03/18 11:39:29;;;;;;;4.85;1.50;;;14.50;99.90;;;;;;5055966;28;20041;-63
2024/03/18 11:41:55;;;;;;;6.38;1.15;;;14.60;99.90;;;;;;5055753;28;20037;-63
2024/03/18 11:44:21;;;;;;;6.82;1.50;;;14.60;99.90;;;;;;5055416;28;20056;-63
2024/03/18 11:46:46;;;;;;;5.68;1.33;;;14.70;99.90;;;;;;5055396;28;20037;-64
2024/03/18 11:49:17;;;;;;;8.00;1.10;;;14.90;99.90;;;;;;5055606;28;20091;-63
2024/03/18 11:51:43;;;;;;;8.13;1.50;;;14.90;99.90;;;;;;5055418;28;20069;-64
2024/03/18 11:54:09;;;;;;;5.03;1.33;;;15.00;99.90;;;;;;5055630;28;20044;-63
2024/03/18 11:56:37;;;;;;;7.57;1.40;;;15.10;99.90;;;;;;5055338;28;20041;-63
2024/03/18 11:59:02;;;;;;;6.75;1.40;;;15.30;99.90;;;;;;5055152;28;20048;-63
2024/03/18 12:01:28;;;;;;;5.53;1.00;;;15.40;99.90;;;;;;5055504;28;20120;-64
2024/03/18 12:03:54;;;;;;;5.05;0.93;;;15.50;99.90;;;;;;5055189;28;20048;-63
2024/03/18 12:06:20;;;;;;;7.10;1.17;;;15.40;99.90;;;;;;5055463;28;20481;-64
2024/03/18 12:08:45;;;;;;;5.22;1.42;;;15.50;99.90;;;;;;5055007;28;20072;-64
2024/03/18 12:11:11;;;;;;;4.47;1.13;;;15.50;99.90;;;;;;5055171;28;20033;-64
2024/03/18 12:13:37;;;;;;;3.08;1.08;;;15.50;99.90;;;;;;5054656;28;20114;-63
2024/03/18 12:16:03;;;;;;;4.88;1.23;;;15.40;99.90;;;;;;5054585;28;20458;-63
2024/03/18 12:18:29;;;;;;;4.32;0.82;;;15.40;99.90;;;;;;5055159;28;20037;-63
2024/03/18 12:20:55;;;;;;;2.95;0.90;;;15.30;99.90;;;;;;5055213;28;20128;-63
2024/03/18 12:28:50;;;;;;;4.97;0.90;;;15.40;99.90;;;;;;5054643;28;20448;-63
2024/03/18 12:31:17;;;;;;;3.58;1.30;;;15.40;99.90;;;;;;5054236;28;20041;-64
2024/03/18 12:33:43;;;;;;;5.43;2.67;;;15.50;99.90;;;;;;5054773;28;20142;-64
2024/03/18 12:36:09;;;;;;;4.63;1.10;;;15.50;99.90;;;;;;5054826;28;20041;-64
2024/03/18 12:38:35;;;;;;;3.65;0.90;;;15.60;99.90;;;;;;5054755;28;20036;-64
2024/03/18 12:41:01;;;;;;;8.60;1.70;;;15.50;99.90;;;;;;5054500;28;20045;-64
2024/03/18 12:43:27;;;;;;;4.50;0.85;;;15.50;99.90;;;;;;5054529;28;20094;-64